Madison, WI

9:47 PM CDT on July 06, 2015 (GMT -0500)
Atmospheric, Oceanic and Space Sciences Building | | Change Station
CLOSE
Current Station
Personal Weather Station
Location: Madison, WI
Elevation: 896 ft
Nearby Weather Stations

Elev 896 ft 43.07 °N, 89.41 °W | Updated 2 minutes ago

Rain
Rain
72.8 °F
Feels Like 72.8 °F
N
10.2
Wind Variable Wind from West

Today
High -- | Low -- °F
--% Chance of Precip.
Yesterday
High -- | Low -- °F
Precip. -- in
5:24 AM 8:39 PM
Waning Gibbous, 69% visible
Pressure 29.81 in
Visibility 2.5 miles
Clouds Scattered Clouds 1200 ft
Mostly Cloudy 1700 ft
Overcast 6000 ft
Dew Point 72 °F
Humidity 95%
Rainfall 0.33 in
Snow Depth Not available.
UV 0 out of 12
Pollen 4.50 out of 12
Air Quality Not available.
Flu Activity Not available.
SPECI KMSN 070243Z 16004KT 2 1/2SM RA BR SCT012 BKN017 OVC060 24/22 A2981 RMK AO2 P0013 T02390222

More Conditions Fewer Conditions

Pressure 29.81 in
Visibility 2.5 miles
Clouds Scattered Clouds 1200 ft
Mostly Cloudy 1700 ft
Overcast 6000 ft
Dew Point 72 °F
Humidity 95%
Rainfall 0.33 in
Snow Depth Not available.
UV 0 out of 12
Pollen 4.50 out of 12
Air Quality Not available.
Flu Activity Not available.
SPECI KMSN 070243Z 16004KT 2 1/2SM RA BR SCT012 BKN017 OVC060 24/22 A2981 RMK AO2 P0013 T02390222

More Conditions Fewer Conditions

10-Day Weather Forecast

×

Almanac

Astronomy

Jul. 06, 2015 Rise Set
Actual Time
Civil Twilight
Nautical Twilight
Astronomical Twilight
Moon
Length of Visible Light
Length of Day
Tomorrow will be .
, % of the Moon is Illuminated

Today's Extremes

State Highs State Lows

Community

WunderPhotos

Upload Photos

1,835,701 photos uploaded!

WunderBlogs® & News

Nearby

Air Quality

  Air Quality AQ Index Pollutant
Not available.

Snow Depth

Station Depth Elevation

Earthquake Activity

City Distance Mag. Time & Date
Minimum magnitude displayed is 2.5.

Coastal Water Temperatures

Place Temperature

Stations

Nearby Weather Stations

Station Location Temp. Windchill Dew Point Humidity Wind Precip. Elev Updated Type